Fort Lauderdale, FL

9:23 PM EDT on September 15, 2014 (GMT -0400)
Lauderdale Harbors | Change Station
CLOSE
Current Station
Personal Weather Station
Location: Fort Lauderdale, FL
Elevation: 16 ft
Nearby Weather Stations

Elev 16 ft 26.11 °N, 80.13 °W | Updated 3 minutes ago

Partly Cloudy
Partly Cloudy
82.8 °F
Feels Like 92 °F
N
1.0
Wind Variable Wind from ESE
Gusts 1.0 mph

Today
High -- | Low -- °F
--% Chance of Precip.
Yesterday
High -- | Low -- °F
Precip. -- in
7:06 AM 7:24 PM
Waning Gibbous, 50% visible
Pressure 30.11 in
Visibility 10.0 miles
Clouds Few 2400 ft
Scattered Clouds 25000 ft
Heat Index 92 °F
Dew Point 77 °F
Humidity 83%
Rainfall 0.00 in
Snow Depth Not available.
UV 0 out of 12
Pollen 3.60 out of 12
Ozone Good
Flu Activity Not available.
METAR KFLL 160053Z 08006KT 10SM FEW024 SCT250 29/24 A3011 RMK AO2 SLP195 T02890239

More Conditions Fewer Conditions

Pressure 30.11 in
Visibility 10.0 miles
Clouds Few 2400 ft
Scattered Clouds 25000 ft
Heat Index 92 °F
Dew Point 77 °F
Humidity 83%
Rainfall 0.00 in
Snow Depth Not available.
UV 0 out of 12
Pollen 3.60 out of 12
Ozone Good
Flu Activity Not available.
METAR KFLL 160053Z 08006KT 10SM FEW024 SCT250 29/24 A3011 RMK AO2 SLP195 T02890239

More Conditions Fewer Conditions

10-Day Weather Forecast

Almanac

Astronomy

Sep. 15, 2014 Rise Set
Actual Time 7:06 AM EDT 7:24 PM EDT
Civil Twilight 6:43 AM EDT 7:47 PM EDT
Nautical Twilight 6:16 AM EDT 8:14 PM EDT
Astronomical Twilight 5:48 AM EDT 8:41 PM EDT
Moon No Moon Rise 1:31 PM EDT (9/15)
Length of Visible Light 13h 04m
Length of Day
12h 18m
Tomorrow will be 1m 31s shorter.
Waning Gibbous, 50% of the Moon is Illuminated
Today
Waning Gibbous
Sep 15
Last Quarter
Sep 24
New
Oct 1
First Quarter
Oct 8
Full

Today's Extremes

State Highs State Lows

Community

WunderPhotos

Upload Photos

1,753,645 photos uploaded!

WunderBlogs® & News

Nearby

Air Quality

  Air Quality AQ Index Pollutant
Yesterday Good
OZONE
Current Good
OZONE
Monday Moderate
PM2.5
Monday Good
OZONE
Tuesday Good
OZONE
Tuesday Good
PM2.5
Wednesday Good
OZONE
Wednesday Good
PM2.5
Thursday Good
OZONE
Thursday Good
PM2.5
Friday Good
OZONE
Friday Good
PM2.5
Saturday Good
OZONE
Saturday Good
PM2.5

Snow Depth

Station Depth Elevation
No new snow has been reported.

Earthquake Activity

City Distance Mag. Time & Date
No recent earthquake activity has been reported nearby.
Minimum magnitude displayed is 2.5.

Coastal Water Temperatures

Place Temperature
Virginia Key, FL 86.0 °F

Nearby Weather Stations